Altstadt, Germany

7:37 PM CEST on May 23, 2017 (GMT +0200)
Frankfurt / Main | | Change Station

Elev 371 ft 50.05 °N, 8.60 °E | Updated 17 minutes ago

Mostly Cloudy
Mostly Cloudy
75 °F
Feels Like 75 °F
N
14
Wind Variable Wind from NNW

Today
High -- | Low -- °F
--% Chance of Precip.
Yesterday
High -- | Low -- °F
Precip. -- in
Pressure 30.04 in
Visibility -9999.0 miles
Clouds
Dew Point 52 °F
Humidity 44%
Rainfall 0.00 in
Snow Depth Not available.
5:28 AM 9:16 PM
Waning Crescent, 7% visible
METAR EDDF 231720Z 33012KT 300V360 CAVOK 24/11 Q1017 NOSIG
Pressure 30.04 in
Visibility -9999.0 miles
Clouds
Dew Point 52 °F
Humidity 44%
Rainfall 0.00 in
Snow Depth Not available.
5:28 AM 9:16 PM
Waning Crescent, 7% visible
METAR EDDF 231720Z 33012KT 300V360 CAVOK 24/11 Q1017 NOSIG

Get Severe Weather Alerts

Thanks for signing up!

Be on the lookout for a verification email in your inbox.

You'll start receiving the daily forecast at 6 AM.

×

10-Day Weather Forecast

×

Almanac

Astronomy

May. 23, 2017 Rise Set
Actual Time
Civil Twilight
Nautical Twilight
Astronomical Twilight
Moon
Length of Visible Light
Length of Day
Tomorrow will be .
, % of the Moon is Illuminated

Today's Extremes

Country Highs Country Lows

Community

WunderPhotos

Category 6

Welcome to Category 6. This is the collective home for Weather Underground's featured writeups by Dr. Jeff Masters (right), Bob Henson (left), Chris Burt, and other regular contributors.

Nearby

Air Quality

  Air Quality AQ Index Pollutant
Not available.

Snow Depth

Station Depth Elevation

Earthquake Activity

City Distance Mag. Time & Date
Minimum magnitude displayed is 2.5.

Coastal Water Temperatures

Place Temperature

Stations

Nearby Weather Stations

Station Location Temp. Windchill Dew Point Humidity Wind Precip. Elev Updated Type